Time;durP1;ratioP1;P1;durP2;ratioP2;P2;SDS_P1;SDS_P2;PMS_P1;PMS_P2;Temp;Humidity;BMP_temperature;BMP_pressure;BME280_temperature;BME280_humidity;BME280_pressure;Samples;Min_cycle;Max_cycle;Signal;HPM_P1;HPM_P2
2021/09/15 00:01:12;;;;;;;28.27;21.63;;;;;;;18.21;87.23;101115.81;5003633;28;20029;-79
2021/09/15 00:03:37;;;;;;;22.77;17.70;;;;;;;18.29;86.74;101104.69;5001008;28;20046;-79
2021/09/15 00:06:04;;;;;;;31.65;24.73;;;;;;;18.23;87.43;101111.25;5007438;28;20108;-79
2021/09/15 00:08:30;;;;;;;24.98;19.65;;;;;;;18.36;86.20;101108.59;5024925;28;20052;-79
2021/09/15 00:10:55;;;;;;;29.80;24.13;;;;;;;18.32;87.13;101101.81;5003945;28;20037;-79
2021/09/15 00:13:20;;;;;;;33.33;25.42;;;;;;;18.34;87.27;101107.03;4988682;28;20325;-79
2021/09/15 00:15:46;;;;;;;33.38;23.90;;;;;;;18.40;86.53;101106.59;5002445;28;20029;-79
2021/09/15 00:18:11;;;;;;;33.30;24.95;;;;;;;18.37;87.03;101098.84;4991083;28;20033;-79
2021/09/15 00:20:37;;;;;;;33.85;25.30;;;;;;;18.36;87.08;101098.00;4989223;28;20037;-79
2021/09/15 00:23:02;;;;;;;35.13;26.75;;;;;;;18.18;87.95;101097.47;5004990;28;20022;-80
2021/09/15 00:25:28;;;;;;;41.67;27.73;;;;;;;18.15;87.60;101097.66;4974107;28;20157;-79
2021/09/15 00:27:53;;;;;;;33.45;26.48;;;;;;;18.02;88.11;101094.16;5008054;28;20095;-79
2021/09/15 00:30:18;;;;;;;41.63;27.58;;;;;;;17.93;88.05;101098.28;4986762;28;20021;-80
2021/09/15 00:32:44;;;;;;;37.05;28.10;;;;;;;18.08;87.70;101103.50;5005718;28;20046;-79
2021/09/15 00:35:11;;;;;;;35.30;26.83;;;;;;;18.00;88.10;101090.78;4999544;28;20095;-79
2021/09/15 00:37:37;;;;;;;38.08;29.65;;;;;;;17.96;88.72;101091.94;5009913;28;20052;-79
2021/09/15 00:40:03;;;;;;;40.55;29.45;;;;;;;17.92;89.21;101086.00;5000631;28;20037;-80
2021/09/15 00:42:28;;;;;;;44.78;29.85;;;;;;;17.96;88.80;101089.28;4992141;28;20359;-80
2021/09/15 00:44:54;;;;;;;44.35;28.73;;;;;;;17.93;89.22;101089.50;4990710;28;20046;-80
2021/09/15 00:47:19;;;;;;;43.25;28.70;;;;;;;17.89;88.99;101093.31;5011277;28;20029;-79
2021/09/15 00:49:45;;;;;;;41.90;29.23;;;;;;;17.80;89.46;101092.94;5004517;28;20041;-80
2021/09/15 00:52:10;;;;;;;44.83;30.65;;;;;;;17.86;89.06;101090.84;5007144;28;20336;-80
2021/09/15 00:54:36;;;;;;;43.22;29.83;;;;;;;17.83;89.72;101084.78;4990229;28;20244;-80
2021/09/15 00:57:01;;;;;;;47.25;32.25;;;;;;;17.74;89.59;101088.06;4989915;28;20034;-80
2021/09/15 00:59:27;;;;;;;47.60;30.83;;;;;;;17.69;89.56;101082.22;5021716;28;20087;-80
2021/09/15 01:01:52;;;;;;;44.63;32.17;;;;;;;17.72;89.18;101082.00;4984785;28;20030;-79
2021/09/15 01:04:18;;;;;;;49.25;33.88;;;;;;;17.61;89.56;101084.53;4991133;28;20068;-80
2021/09/15 01:06:43;;;;;;;49.95;34.10;;;;;;;17.57;90.14;101089.19;4991914;28;20030;-80
2021/09/15 01:09:09;;;;;;;48.97;33.80;;;;;;;17.54;90.11;101088.53;5005189;28;20038;-80
2021/09/15 01:11:35;;;;;;;51.40;33.58;;;;;;;17.51;89.72;101086.91;5005365;28;20052;-80
2021/09/15 01:14:01;;;;;;;52.63;34.45;;;;;;;17.53;89.76;101084.19;4989235;28;20021;-79
2021/09/15 01:16:26;;;;;;;53.95;35.42;;;;;;;17.58;90.41;101087.38;5017667;28;20032;-80
2021/09/15 01:18:52;;;;;;;56.22;35.95;;;;;;;17.54;90.21;101088.53;5000688;28;20033;-80
2021/09/15 01:21:17;;;;;;;50.60;34.65;;;;;;;17.45;90.55;101084.69;4989153;28;20311;-80
2021/09/15 01:23:43;;;;;;;50.58;34.95;;;;;;;17.48;90.58;101089.75;4991302;28;20048;-80
2021/09/15 01:26:08;;;;;;;52.85;34.72;;;;;;;17.42;90.55;101090.19;4992900;28;20029;-80
2021/09/15 01:28:34;;;;;;;61.58;38.13;;;;;;;17.32;90.88;101087.28;5015273;28;20124;-80
2021/09/15 01:30:59;;;;;;;63.58;38.33;;;;;;;17.32;91.05;101078.47;5009193;28;20128;-80
2021/09/15 01:33:24;;;;;;;60.63;37.40;;;;;;;17.22;91.43;101081.72;5025699;28;20045;-80
2021/09/15 01:35:50;;;;;;;57.28;38.20;;;;;;;17.18;91.77;101077.59;5009577;28;20033;-80
2021/09/15 01:38:15;;;;;;;61.58;39.72;;;;;;;17.16;91.91;101079.50;5009491;28;20026;-80
2021/09/15 01:40:41;;;;;;;64.95;38.95;;;;;;;17.15;91.48;101079.59;5007458;28;20042;-80
2021/09/15 01:43:06;;;;;;;62.72;39.15;;;;;;;17.24;91.69;101079.00;5008545;28;20048;-80
2021/09/15 01:45:32;;;;;;;63.85;40.60;;;;;;;17.21;91.75;101076.56;5010322;28;20084;-80
2021/09/15 01:47:57;;;;;;;66.40;40.60;;;;;;;17.13;91.31;101074.38;4987769;28;20041;-80
2021/09/15 01:50:23;;;;;;;61.58;38.70;;;;;;;17.08;91.85;101077.34;4979681;28;20026;-80
2021/09/15 01:52:48;;;;;;;70.40;42.83;;;;;;;17.07;91.82;101077.44;5005867;28;20088;-80
2021/09/15 01:55:24;;;;;;;71.07;42.40;;;;;;;17.05;92.12;101074.88;4988985;28;20038;-80
2021/09/15 01:57:50;;;;;;;77.38;44.67;;;;;;;17.03;92.50;101066.19;4992476;28;20095;-80
2021/09/15 02:00:16;;;;;;;72.38;43.17;;;;;;;17.04;92.17;101067.88;5023147;28;20037;-80
2021/09/15 02:02:42;;;;;;;76.20;44.42;;;;;;;17.05;92.09;101068.75;4987025;28;20034;-80
2021/09/15 02:05:08;;;;;;;78.13;43.00;;;;;;;17.05;92.17;101063.47;5006006;28;20092;-80
2021/09/15 02:07:33;;;;;;;83.80;45.15;;;;;;;17.01;92.34;101068.09;5014243;28;20269;-79
2021/09/15 02:09:59;;;;;;;77.22;45.22;;;;;;;17.04;91.85;101061.75;5005967;28;20025;-80
2021/09/15 02:12:24;;;;;;;76.60;44.90;;;;;;;17.04;91.84;101059.94;4989842;28;20084;-80
2021/09/15 02:14:49;;;;;;;73.72;43.92;;;;;;;17.03;91.60;101054.78;5023694;28;20202;-80
2021/09/15 02:17:15;;;;;;;76.00;43.83;;;;;;;16.98;92.01;101057.72;4986173;28;20053;-80
2021/09/15 02:19:40;;;;;;;69.25;43.55;;;;;;;16.95;91.80;101065.00;4994983;28;20124;-80
2021/09/15 02:22:06;;;;;;;79.15;46.35;;;;;;;16.95;92.06;101059.69;4989311;28;20033;-80
2021/09/15 02:24:31;;;;;;;80.25;44.33;;;;;;;16.96;92.11;101072.84;4989722;28;20042;-80
2021/09/15 02:26:56;;;;;;;80.53;45.58;;;;;;;16.91;92.27;101066.13;5003792;28;20052;-79
2021/09/15 02:29:22;;;;;;;84.47;48.28;;;;;;;16.89;92.22;101063.59;4999635;28;20030;-80
2021/09/15 02:31:47;;;;;;;74.00;45.38;;;;;;;16.92;91.89;101070.47;5006350;28;20084;-80
2021/09/15 02:34:13;;;;;;;69.28;43.40;;;;;;;16.88;91.76;101068.03;4979838;28;20638;-79
2021/09/15 02:36:38;;;;;;;72.90;44.97;;;;;;;16.86;91.91;101058.47;4990425;28;20026;-79
2021/09/15 02:39:03;;;;;;;79.25;45.80;;;;;;;16.86;92.14;101056.72;5007469;28;20018;-79
2021/09/15 02:41:29;;;;;;;80.43;45.70;;;;;;;16.87;91.90;101054.91;4990011;28;20021;-79
2021/09/15 02:43:54;;;;;;;78.43;45.78;;;;;;;16.99;91.63;101054.13;4986948;28;20026;-79
2021/09/15 02:46:20;;;;;;;78.60;46.22;;;;;;;17.08;91.67;101058.81;5036868;28;20025;-79
2021/09/15 02:48:45;;;;;;;84.80;47.08;;;;;;;16.87;91.77;101054.91;5027548;28;20030;-79
2021/09/15 02:51:13;;;;;;;78.47;45.30;;;;;;;16.92;91.50;101052.81;5013682;28;20034;-79
2021/09/15 02:53:39;;;;;;;79.65;43.15;;;;;;;16.93;90.72;101046.56;5019517;28;20384;-79
2021/09/15 02:56:04;;;;;;;67.07;40.38;;;;;;;16.72;91.44;101048.75;5041893;28;20036;-79
2021/09/15 02:58:30;;;;;;;68.88;40.00;;;;;;;16.60;92.07;101052.19;5004895;28;20052;-79
2021/09/15 03:00:55;;;;;;;69.72;41.72;;;;;;;16.95;90.77;101060.53;5005581;28;20030;-79
2021/09/15 03:03:20;;;;;;;64.00;39.78;;;;;;;16.68;90.94;101048.09;4989012;28;20030;-79
2021/09/15 03:05:46;;;;;;;76.93;42.92;;;;;;;16.64;91.81;101049.22;5006510;28;20065;-79
2021/09/15 03:08:11;;;;;;;58.85;35.92;;;;;;;16.46;91.58;101053.91;5018164;28;20041;-79
2021/09/15 03:10:37;;;;;;;55.22;34.78;;;;;;;16.54;90.84;101044.63;4991882;28;20041;-79
2021/09/15 03:13:02;;;;;;;65.85;38.03;;;;;;;16.48;90.73;101033.50;5005004;28;20022;-79
2021/09/15 03:15:28;;;;;;;67.60;37.65;;;;;;;16.38;91.44;101036.81;4990340;28;20438;-78
2021/09/15 03:17:53;;;;;;;66.15;37.10;;;;;;;16.37;91.22;101029.81;4988278;28;20305;-79
2021/09/15 03:20:19;;;;;;;60.60;36.10;;;;;;;16.35;90.99;101029.06;5022243;28;20026;-79
2021/09/15 03:22:44;;;;;;;68.10;40.60;;;;;;;16.45;91.16;101031.03;4973845;28;20030;-79
2021/09/15 03:25:10;;;;;;;55.33;34.53;;;;;;;16.43;90.79;101030.28;5042393;28;20291;-79
2021/09/15 03:27:35;;;;;;;58.95;34.95;;;;;;;16.37;90.90;101021.88;5008293;28;20157;-79
2021/09/15 03:30:01;;;;;;;63.10;36.13;;;;;;;16.38;91.45;101020.94;4989376;28;20217;-79
2021/09/15 03:32:26;;;;;;;75.40;42.00;;;;;;;16.37;93.07;101024.53;5004702;28;20112;-79
2021/09/15 03:34:52;;;;;;;80.47;43.42;;;;;;;16.46;93.09;101022.19;4999822;28;20042;-79
2021/09/15 03:37:17;;;;;;;78.57;45.50;;;;;;;16.46;92.84;101021.31;5005688;28;20199;-79
2021/09/15 03:39:42;;;;;;;60.10;36.15;;;;;;;16.43;92.24;101026.81;5014900;28;20037;-79
2021/09/15 03:42:08;;;;;;;66.13;39.10;;;;;;;16.44;91.91;101029.31;4988868;28;20061;-79
2021/09/15 03:44:33;;;;;;;75.30;42.17;;;;;;;16.33;92.40;101036.22;5034814;28;20100;-79
2021/09/15 03:46:59;;;;;;;81.88;46.25;;;;;;;16.42;92.33;101040.94;5006991;28;20028;-79
2021/09/15 03:49:25;;;;;;;74.28;42.50;;;;;;;16.44;92.06;101039.06;4987733;28;20108;-80
2021/09/15 03:51:51;;;;;;;55.70;35.92;;;;;;;16.36;90.75;101046.63;5021120;28;20115;-79
2021/09/15 03:54:16;;;;;;;70.88;41.60;;;;;;;16.46;90.54;101039.81;5006159;28;20224;-79
2021/09/15 03:56:42;;;;;;;75.05;42.28;;;;;;;16.44;90.57;101036.41;5001186;28;20022;-80
2021/09/15 03:59:07;;;;;;;83.35;46.60;;;;;;;16.48;91.37;101037.91;4977172;28;20194;-79
2021/09/15 04:01:33;;;;;;;99.70;51.67;;;;;;;16.53;92.07;101035.00;5015158;28;20394;-79
2021/09/15 04:03:58;;;;;;;99.93;50.08;;;;;;;16.53;91.61;101043.75;5008373;28;20037;-79
2021/09/15 04:06:24;;;;;;;107.90;54.53;;;;;;;16.53;92.61;101043.75;5024285;28;20053;-79
2021/09/15 04:08:49;;;;;;;101.05;53.15;;;;;;;16.51;92.29;101035.94;5006087;28;20063;-79
2021/09/15 04:11:15;;;;;;;100.10;51.63;;;;;;;16.55;91.99;101039.22;5022785;28;20034;-79
2021/09/15 04:13:40;;;;;;;109.55;53.75;;;;;;;16.46;92.30;101042.44;5037357;28;20026;-79
2021/09/15 04:16:06;;;;;;;111.82;54.83;;;;;;;16.45;92.52;101041.59;5007729;28;20025;-79
2021/09/15 04:18:31;;;;;;;93.55;49.92;;;;;;;16.39;92.50;101036.72;5008304;28;20034;-79
2021/09/15 04:20:56;;;;;;;102.00;52.22;;;;;;;16.36;93.03;101036.91;5023269;28;20061;-80
2021/09/15 04:31:19;;;;;;;105.95;54.85;;;;;;;16.39;92.84;101030.56;5007307;28;20049;-79
2021/09/15 04:33:45;;;;;;;105.30;53.90;;;;;;;16.38;92.78;101032.34;4988960;28;20056;-80
2021/09/15 04:36:10;;;;;;;107.68;52.72;;;;;;;16.38;92.76;101039.44;4988826;28;20029;-80
2021/09/15 04:38:37;;;;;;;109.18;53.90;;;;;;;16.41;93.09;101044.53;4987840;28;20034;-79
2021/09/15 04:41:02;;;;;;;103.35;52.78;;;;;;;16.38;92.43;101042.09;5004245;28;20088;-79
2021/09/15 04:43:28;;;;;;;91.57;46.92;;;;;;;16.34;91.62;101033.50;5022899;28;20256;-80
2021/09/15 04:45:53;;;;;;;139.25;56.85;;;;;;;16.45;92.15;101033.69;5020548;28;20026;-80
2021/09/15 04:48:19;;;;;;;121.13;52.50;;;;;;;16.39;91.90;101033.19;5040856;28;20034;-79
2021/09/15 04:50:44;;;;;;;166.68;58.17;;;;;;;16.35;92.50;101042.28;4987329;28;20030;-80
2021/09/15 04:53:09;;;;;;;124.35;54.70;;;;;;;16.34;92.47;101045.88;5004103;28;20049;-80
2021/09/15 04:55:35;;;;;;;152.05;55.88;;;;;;;16.31;92.81;101044.25;4990752;28;20041;-79
2021/09/15 04:58:00;;;;;;;139.15;53.03;;;;;;;16.28;93.10;101037.38;5027042;28;20033;-79
2021/09/15 05:00:26;;;;;;;119.93;55.58;;;;;;;16.32;92.89;101032.75;4990455;28;20278;-79
2021/09/15 05:02:52;;;;;;;108.57;55.10;;;;;;;16.22;93.66;101031.59;4991586;28;20052;-79
2021/09/15 05:05:17;;;;;;;89.50;47.60;;;;;;;16.15;92.84;101035.56;4991471;28;20064;-79
2021/09/15 05:07:42;;;;;;;90.38;49.97;;;;;;;16.11;92.99;101032.25;5020850;28;20217;-79
2021/09/15 05:10:08;;;;;;;98.75;49.58;;;;;;;16.15;92.97;101033.75;5009928;28;20044;-79
2021/09/15 05:12:34;;;;;;;91.28;48.05;;;;;;;16.22;92.33;101029.81;4993481;28;20037;-79
2021/09/15 05:14:59;;;;;;;100.78;48.03;;;;;;;16.14;92.66;101036.53;5021241;28;20052;-79
2021/09/15 05:17:25;;;;;;;108.70;52.15;;;;;;;16.21;93.28;101038.69;4996709;28;20030;-79
2021/09/15 05:19:50;;;;;;;114.05;51.90;;;;;;;16.23;92.74;101039.44;5013852;28;20041;-79
2021/09/15 05:22:16;;;;;;;117.97;53.53;;;;;;;16.27;93.13;101043.59;5025339;28;20155;-79
2021/09/15 05:24:43;;;;;;;120.25;57.55;;;;;;;16.15;93.77;101046.13;5004594;28;20080;-81
2021/09/15 05:27:09;;;;;;;120.32;52.53;;;;;;;16.00;93.49;101045.28;4996347;28;20037;-80
2021/09/15 05:29:34;;;;;;;134.52;60.50;;;;;;;16.02;94.10;101048.66;5004235;28;20252;-80
2021/09/15 05:32:00;;;;;;;118.82;51.95;;;;;;;15.89;93.56;101041.47;4992752;28;20038;-80
2021/09/15 05:34:25;;;;;;;106.05;50.08;;;;;;;16.00;92.84;101045.28;4983086;28;20073;-81
2021/09/15 05:36:51;;;;;;;11.85;7.35;;;;;;;17.75;83.57;101041.22;4998044;28;20298;-80
2021/09/15 05:39:16;;;;;;;6.18;5.38;;;;;;;19.60;75.11;101042.22;5005921;28;20033;-80
2021/09/15 05:41:42;;;;;;;10.73;4.88;;;;;;;20.11;73.08;101047.19;5024512;28;20041;-81
2021/09/15 05:44:07;;;;;;;8.40;4.70;;;;;;;20.33;72.42;101048.16;5002308;28;20045;-81
2021/09/15 05:46:33;;;;;;;10.38;4.63;;;;;;;20.41;71.85;101055.53;4988040;28;20061;-81
2021/09/15 05:48:58;;;;;;;5.43;4.38;;;;;;;20.55;71.76;101051.81;4986208;28;20442;-81
2021/09/15 05:51:23;;;;;;;6.15;4.63;;;;;;;20.59;71.44;101054.09;5000023;28;20025;-81
2021/09/15 05:53:49;;;;;;;8.48;4.90;;;;;;;20.75;70.91;101059.06;5016170;28;20048;-81
2021/09/15 05:56:14;;;;;;;11.07;4.40;;;;;;;20.84;70.39;101063.63;5017035;28;20097;-81
2021/09/15 05:58:40;;;;;;;7.93;5.20;;;;;;;20.83;70.34;101069.94;5033247;28;20053;-80
2021/09/15 06:01:06;;;;;;;22.92;5.57;;;;;;;20.86;70.20;101063.53;5002773;28;20022;-80
2021/09/15 06:03:32;;;;;;;11.65;5.40;;;;;;;20.90;69.92;101070.28;5015149;28;20034;-81
2021/09/15 06:05:57;;;;;;;24.80;6.40;;;;;;;21.01;69.49;101074.75;5004962;28;20036;-80
2021/09/15 06:08:23;;;;;;;19.83;5.53;;;;;;;21.00;69.86;101076.56;5028491;28;20032;-80
2021/09/15 06:10:48;;;;;;;16.35;6.28;;;;;;;21.17;68.84;101083.16;5004784;28;20052;-80
2021/09/15 06:13:13;;;;;;;22.80;6.47;;;;;;;21.23;68.77;101085.34;5017231;28;20048;-80
2021/09/15 06:15:39;;;;;;;13.93;5.95;;;;;;;21.13;68.77;101084.41;5003141;28;20033;-80
2021/09/15 06:18:05;;;;;;;16.90;6.50;;;;;;;21.17;68.67;101085.00;5008894;28;20044;-80
2021/09/15 06:20:30;;;;;;;12.52;6.40;;;;;;;21.22;68.41;101093.47;5010474;28;20033;-80
2021/09/15 06:22:55;;;;;;;17.55;7.70;;;;;;;21.20;68.48;101090.91;4991319;28;20026;-80
2021/09/15 06:25:23;;;;;;;14.23;6.07;;;;;;;21.27;68.29;101084.13;5021301;28;20046;-80
2021/09/15 06:27:51;;;;;;;13.32;6.45;;;;;;;21.29;68.09;101082.16;5014227;28;20213;-80
2021/09/15 06:30:16;;;;;;;17.90;6.03;;;;;;;21.39;67.55;101092.94;5012266;28;20033;-80
2021/09/15 06:32:42;;;;;;;10.57;6.82;;;;;;;21.41;67.62;101083.00;5021327;28;20045;-80
2021/09/15 06:35:08;;;;;;;18.98;7.47;;;;;;;21.47;67.35;101090.50;5024114;28;20292;-80
2021/09/15 06:37:37;;;;;;;18.90;6.90;;;;;;;21.51;67.10;101085.75;5008211;28;20037;-80
2021/09/15 06:40:02;;;;;;;;;;;;;;;21.50;67.30;101088.53;5031960;28;20190;-80
2021/09/15 06:42:27;;;;;;;15.98;7.55;;;;;;;21.64;67.26;101097.06;5000665;28;20365;-83
2021/09/15 06:44:53;;;;;;;28.88;9.95;;;;;;;22.02;66.47;101097.50;4998754;28;20036;-81
2021/09/15 06:47:18;;;;;;;29.60;8.48;;;;;;;22.26;65.68;101099.03;5011095;28;20030;-86
2021/09/15 06:49:44;;;;;;;21.95;7.65;;;;;;;22.40;64.78;101104.91;5027930;28;20048;-84
2021/09/15 06:52:09;;;;;;;22.35;8.45;;;;;;;22.57;64.71;101100.75;4996473;28;20017;-85
2021/09/15 06:54:35;;;;;;;36.95;14.20;;;;;;;22.90;65.68;101097.91;4998263;28;20033;-83
2021/09/15 06:57:00;;;;;;;32.38;19.55;;;;;;;22.92;65.68;101099.50;5012332;28;20363;-85
2021/09/15 06:59:25;;;;;;;32.08;16.17;;;;;;;23.33;64.12;101097.63;5002878;28;20037;-83
2021/09/15 07:01:51;;;;;;;29.10;9.65;;;;;;;23.08;63.53;101098.97;5004925;28;20041;-85
2021/09/15 07:04:16;;;;;;;25.05;9.63;;;;;;;22.84;64.17;101102.00;5001912;28;20037;-85
2021/09/15 07:06:42;;;;;;;30.83;15.73;;;;;;;22.96;64.19;101105.41;5002609;28;20029;-84
2021/09/15 07:09:09;;;;;;;17.50;9.63;;;;;;;23.13;63.16;101098.59;4988178;28;20041;-85
2021/09/15 07:11:34;;;;;;;27.20;9.73;;;;;;;23.06;63.96;101108.13;5005209;28;20059;-83
2021/09/15 07:14:03;;;;;;;20.38;13.13;;;;;;;22.83;64.36;101102.97;5020663;28;20037;-83
2021/09/15 07:16:29;;;;;;;23.23;8.55;;;;;;;22.78;64.83;101111.38;5019650;28;20343;-84
2021/09/15 07:18:54;;;;;;;16.45;9.10;;;;;;;22.73;64.86;101107.44;5000913;28;20186;-84
2021/09/15 07:21:20;;;;;;;20.60;10.52;;;;;;;22.58;65.01;101110.47;4990691;28;20048;-84
2021/09/15 07:23:52;;;;;;;14.55;8.23;;;;;;;22.73;64.79;101108.28;5003269;28;20052;-85
2021/09/15 07:26:17;;;;;;;18.75;9.30;;;;;;;;;;5013783;28;20213;-85
2021/09/15 07:28:53;;;;;;;23.43;8.10;;;;;;;22.80;64.32;101114.75;5050163;28;20021;-84
2021/09/15 07:31:19;;;;;;;14.85;6.97;;;;;;;22.91;64.02;101110.31;5015577;28;20024;-80
2021/09/15 07:33:44;;;;;;;16.48;7.53;;;;;;;22.90;64.44;101104.13;5014330;28;20080;-84
2021/09/15 07:36:10;;;;;;;29.42;7.55;;;;;;;22.98;64.17;101106.94;4995874;28;20033;-84
2021/09/15 07:38:35;;;;;;;12.07;9.20;;;;;;;22.68;63.34;101107.81;5016989;28;20021;-82
2021/09/15 07:41:01;;;;;;;23.17;8.00;;;;;;;23.17;63.40;101098.16;5008862;28;20371;-84
2021/09/15 07:43:26;;;;;;;17.67;6.95;;;;;;;23.41;62.48;101110.28;5010267;28;20045;-85
2021/09/15 07:45:51;;;;;;;22.45;6.25;;;;;;;23.51;62.23;101095.09;5027279;28;20301;-84
2021/09/15 07:48:17;;;;;;;15.25;5.97;;;;;;;23.37;62.51;101100.84;5017731;28;20030;-85
2021/09/15 07:50:42;;;;;;;19.50;5.90;;;;;;;23.24;63.12;101098.44;4999348;28;20037;-86
2021/09/15 07:53:07;;;;;;;18.50;6.30;;;;;;;22.98;63.94;101103.44;5008492;28;20051;-86
2021/09/15 07:55:34;;;;;;;15.95;5.68;;;;;;;22.98;63.68;101100.78;5008949;28;20057;-84
2021/09/15 07:57:59;;;;;;;17.65;6.60;;;;;;;23.02;63.37;101102.19;4985715;28;20029;-84
2021/09/15 08:00:25;;;;;;;23.25;6.75;;;;;;;23.04;63.41;101086.88;5028422;28;20111;-84
2021/09/15 08:02:50;;;;;;;14.35;5.75;;;;;;;23.11;63.15;101096.03;5014790;28;20045;-82
2021/09/15 08:05:19;;;;;;;20.45;6.28;;;;;;;23.13;63.27;101094.06;5041862;28;20072;-86
2021/09/15 08:07:44;;;;;;;22.27;6.05;;;;;;;23.22;62.63;101088.91;5015425;28;20053;-81
2021/09/15 08:10:10;;;;;;;27.83;6.38;;;;;;;23.16;63.15;101091.13;4990211;28;20339;-84
2021/09/15 08:12:35;;;;;;;12.65;7.28;;;;;;;23.08;63.11;101087.47;5012375;28;20332;-82
2021/09/15 08:15:01;;;;;;;29.95;6.25;;;;;;;23.24;63.32;101086.94;5031358;28;20045;-83
2021/09/15 08:17:26;;;;;;;16.95;5.38;;;;;;;23.37;61.45;101082.97;5011751;28;20048;-84
2021/09/15 08:19:52;;;;;;;7.68;5.65;;;;;;;23.27;60.62;101087.50;5008337;28;20099;-83
2021/09/15 08:22:17;;;;;;;21.35;5.68;;;;;;;23.25;62.72;101085.94;4987264;28;20034;-81
2021/09/15 08:24:42;;;;;;;11.02;5.93;;;;;;;22.95;63.18;101085.00;5027344;28;20041;-80
2021/09/15 08:27:08;;;;;;;32.03;5.10;;;;;;;23.23;63.01;101082.56;5013684;28;20029;-83
2021/09/15 08:29:33;;;;;;;22.15;4.95;;;;;;;23.24;62.25;101090.44;4994103;28;20033;-84
2021/09/15 08:31:59;;;;;;;26.92;4.47;;;;;;;23.09;63.35;101078.47;5018032;28;20036;-82
2021/09/15 08:34:24;;;;;;;19.23;5.15;;;;;;;23.16;62.80;101079.63;5029795;28;20061;-80
2021/09/15 08:36:50;;;;;;;16.42;4.68;;;;;;;23.40;62.23;101079.22;5039152;28;20049;-84
2021/09/15 08:39:16;;;;;;;21.60;5.07;;;;;;;23.52;64.34;101075.41;5005349;28;20026;-81
2021/09/15 08:41:41;;;;;;;40.28;4.68;;;;;;;23.84;64.35;101081.47;5021161;28;20037;-82
2021/09/15 08:44:07;;;;;;;13.23;4.22;;;;;;;23.56;59.78;101095.53;5018238;28;20119;-81
2021/09/15 08:46:32;;;;;;;26.98;4.57;;;;;;;23.69;60.56;101095.22;5017134;28;20068;-79
2021/09/15 08:48:59;;;;;;;28.75;4.93;;;;;;;23.99;60.99;101103.25;4992802;28;20049;-82
2021/09/15 08:51:24;;;;;;;36.90;4.50;;;;;;;23.73;60.70;101104.66;5026012;28;20040;-83
2021/09/15 08:53:50;;;;;;;25.23;4.22;;;;;;;23.68;61.07;101108.75;4995484;28;20096;-82
2021/09/15 08:56:15;;;;;;;38.53;4.30;;;;;;;23.03;61.85;101114.56;5003356;28;20022;-81
2021/09/15 08:58:41;;;;;;;29.73;3.53;;;;;;;23.43;61.68;101111.00;5009277;28;20215;-82
2021/09/15 09:01:18;;;;;;;34.75;4.00;;;;;;;23.40;62.05;101111.28;5013116;28;20038;-83
2021/09/15 09:03:44;;;;;;;36.75;4.28;;;;;;;23.50;61.85;101108.59;5000862;28;20064;-78
2021/09/15 09:06:14;;;;;;;25.25;4.05;;;;;;;23.26;60.93;101106.31;4999321;28;20044;-79
2021/09/15 09:08:41;;;;;;;44.60;4.38;;;;;;;23.42;61.44;101109.31;4982938;28;20290;-81
2021/09/15 09:11:07;;;;;;;29.90;3.05;;;;;;;23.30;59.29;101105.94;4995472;28;20025;-79
2021/09/15 09:13:34;;;;;;;33.65;5.10;;;;;;;23.63;59.72;101110.97;5009304;28;20041;-81
2021/09/15 09:15:59;;;;;;;40.15;4.45;;;;;;;23.52;61.90;101111.97;5005258;28;20334;-79
2021/09/15 09:18:25;;;;;;;36.28;4.85;;;;;;;23.46;61.99;101116.03;5001669;28;20037;-81
2021/09/15 09:20:50;;;;;;;42.53;4.78;;;;;;;23.22;61.23;101115.63;4996519;28;20052;-79
2021/09/15 09:23:16;;;;;;;14.23;3.38;;;;;;;23.48;61.72;101111.41;5014879;28;20071;-79
2021/09/15 09:25:44;;;;;;;29.67;3.72;;;;;;;23.58;61.79;101120.28;4992944;28;20034;-80
2021/09/15 09:28:16;;;;;;;17.77;4.20;;;;;;;23.61;61.60;101126.31;5007837;28;20025;-80
2021/09/15 09:30:42;;;;;;;32.92;4.32;;;;;;;23.53;60.65;101122.53;5007198;28;20041;-81
2021/09/15 09:33:07;;;;;;;17.40;2.35;;;;;;;22.88;59.07;101127.44;4999613;28;20040;-79
2021/09/15 09:35:58;;;;;;;20.25;3.95;;;;;;;23.38;59.85;101126.59;4992516;28;20018;-80
2021/09/15 09:38:28;;;;;;;26.42;4.05;;;;;;;23.54;61.45;101132.25;5033455;28;20308;-80
2021/09/15 09:41:04;;;;;;;25.52;4.32;;;;;;;23.66;61.54;101129.44;5017776;28;20037;-78
2021/09/15 09:43:31;;;;;;;4.97;1.73;;;;;;;23.22;58.08;101126.31;5004440;28;20033;-80
2021/09/15 09:45:56;;;;;;;17.95;2.95;;;;;;;23.26;62.05;101128.53;4997935;28;20041;-78
2021/09/15 09:48:28;;;;;;;18.20;3.13;;;;;;;23.27;62.28;101135.59;5013723;28;20309;-79
2021/09/15 09:50:53;;;;;;;16.88;3.95;;;;;;;23.53;61.81;101137.72;5022203;28;20240;-80
2021/09/15 09:53:19;;;;;;;18.48;2.75;;;;;;;23.25;62.50;101137.56;5019171;28;20045;-81
2021/09/15 09:55:44;;;;;;;20.27;3.15;;;;;;;22.88;59.93;101140.78;5015569;28;20037;-79
2021/09/15 09:58:09;;;;;;;15.90;2.42;;;;;;;22.73;62.67;101145.66;4995177;28;20029;-78
2021/09/15 10:00:35;;;;;;;21.48;4.00;;;;;;;23.45;61.93;101146.44;5011808;28;20030;-78
2021/09/15 10:03:02;;;;;;;31.20;4.00;;;;;;;23.43;61.22;101148.41;4994581;28;20025;-81
2021/09/15 10:05:27;;;;;;;24.70;3.80;;;;;;;23.11;62.10;101149.47;5015962;28;20057;-82
2021/09/15 10:07:53;;;;;;;30.00;4.00;;;;;;;23.37;61.88;101146.28;5027344;28;20033;-81
2021/09/15 10:10:19;;;;;;;13.10;2.67;;;;;;;23.20;58.98;101139.78;5015577;28;20049;-82
2021/09/15 10:12:45;;;;;;;28.17;4.05;;;;;;;23.47;60.82;101140.97;5023880;28;20063;-83
2021/09/15 10:15:11;;;;;;;9.18;2.70;;;;;;;23.37;61.00;101127.56;5017584;28;20034;-82
2021/09/15 10:17:39;;;;;;;26.15;3.28;;;;;;;23.02;60.73;101131.56;5004144;28;20213;-82
2021/09/15 10:20:08;;;;;;;12.73;2.75;;;;;;;23.33;61.11;101131.50;5020154;28;20082;-84
2021/09/15 10:22:35;;;;;;;23.00;3.83;;;;;;;23.50;61.11;101129.97;5017282;28;20057;-84
2021/09/15 10:25:01;;;;;;;42.25;4.38;;;;;;;23.63;60.50;101133.25;5020436;28;20076;-82
2021/09/15 10:27:28;;;;;;;28.05;3.25;;;;;;;23.80;60.17;101122.84;5037584;28;20051;-82
2021/09/15 10:30:20;;;;;;;13.80;3.25;;;;;;;24.03;57.83;101126.03;5024518;28;20104;-82
2021/09/15 10:32:47;;;;;;;14.63;3.40;;;;;;;23.97;59.44;101121.28;5000632;28;20041;-82
2021/09/15 10:35:12;;;;;;;10.48;3.17;;;;;;;24.05;58.93;101132.09;4996358;28;20076;-84
2021/09/15 10:37:40;;;;;;;11.82;2.78;;;;;;;23.89;58.16;101130.03;5025829;28;20029;-83
2021/09/15 10:40:08;;;;;;;20.05;3.50;;;;;;;23.84;57.38;101132.28;5044948;28;20045;-81
2021/09/15 10:42:46;;;;;;;29.17;3.95;;;;;;;23.83;59.45;101133.25;5013114;28;20026;-85
2021/09/15 10:45:15;;;;;;;26.88;3.55;;;;;;;23.73;60.33;101138.56;5049112;28;20058;-85
2021/09/15 10:47:47;;;;;;;13.00;2.75;;;;;;;23.45;60.28;101133.09;5004480;28;20412;-82
2021/09/15 10:50:27;;;;;;;8.23;1.75;;;;;;;23.10;59.33;101131.75;5039160;28;20052;-82
2021/09/15 10:52:53;;;;;;;8.77;3.85;;;;;;;22.55;60.36;101139.25;5039301;28;20033;-82
2021/09/15 10:55:18;;;;;;;8.52;3.35;;;;;;;22.54;59.96;101141.06;5008881;28;20056;-80
2021/09/15 10:57:44;;;;;;;29.13;11.07;;;;;;;22.73;59.66;101136.81;5038641;28;20040;-80
2021/09/15 11:00:15;;;;;;;29.55;12.02;;;;;;;22.75;59.05;101137.50;5002141;28;20026;-82
2021/09/15 11:02:41;;;;;;;15.80;8.82;;;;;;;22.43;60.18;101144.66;5027542;28;20036;-81
2021/09/15 11:05:25;;;;;;;19.90;7.32;;;;;;;22.49;60.18;101151.31;5041559;28;20048;-82
2021/09/15 11:07:51;;;;;;;20.75;7.32;;;;;;;22.43;60.29;101141.16;5044196;28;20021;-82
2021/09/15 11:10:34;;;;;;;12.50;5.82;;;;;;;22.51;59.95;101143.16;5019927;28;20060;-81
2021/09/15 11:13:03;;;;;;;18.90;6.22;;;;;;;22.51;59.82;101145.84;5036845;28;20156;-82
2021/09/15 11:15:29;;;;;;;;;;;;;;;22.45;60.14;101155.22;5018290;28;20036;-81
2021/09/15 11:17:55;;;;;;;12.73;5.07;;;;;;;22.55;59.75;101152.59;5015745;28;20229;-80